createdAt,value
2022-09-30T00:01:20.883Z,97195.31
2022-09-30T00:03:24.998Z,97191.66
2022-09-30T00:05:27.922Z,97194.16
2022-09-30T00:07:30.847Z,97191.44
2022-09-30T00:09:33.920Z,97196.63
2022-09-30T00:11:38.635Z,97194.72
2022-09-30T00:13:41.902Z,97194.72
2022-09-30T00:15:47.745Z,97199.94
2022-09-30T00:17:52.067Z,97202.53
2022-09-30T00:19:55.197Z,97206.81
2022-09-30T00:21:58.137Z,97208.34
2022-09-30T00:24:01.936Z,97204.19
2022-09-30T00:26:06.789Z,97203.00
2022-09-30T00:28:09.733Z,97212.38
2022-09-30T00:30:12.975Z,97211.31
2022-09-30T00:32:15.975Z,97200.91
2022-09-30T00:34:20.624Z,97204.13
2022-09-30T00:36:23.571Z,97201.88
2022-09-30T00:38:26.604Z,97209.66
2022-09-30T00:40:30.170Z,97200.31
2022-09-30T00:42:33.150Z,97208.13
2022-09-30T00:45:05.213Z,97202.09
2022-09-30T00:47:23.687Z,97204.00
2022-09-30T00:49:27.963Z,97212.75
2022-09-30T00:51:34.633Z,97205.06
2022-09-30T00:53:41.539Z,97208.59
2022-09-30T00:55:52.384Z,97210.38
2022-09-30T00:57:56.431Z,97213.78
2022-09-30T00:59:59.411Z,97209.31
2022-09-30T01:02:02.821Z,97212.16
2022-09-30T01:04:08.331Z,97215.22
2022-09-30T01:06:12.820Z,97212.00
2022-09-30T01:08:18.137Z,97223.50
2022-09-30T01:10:21.016Z,97212.50
2022-09-30T01:12:25.763Z,97221.22
2022-09-30T01:14:29.619Z,97218.16
2022-09-30T01:16:46.457Z,97232.31
2022-09-30T01:18:56.621Z,97239.06
2022-09-30T01:21:29.920Z,97235.16
2022-09-30T01:23:48.878Z,97233.31
2022-09-30T01:26:04.754Z,97223.59
2022-09-30T01:28:25.031Z,97222.56
2022-09-30T01:30:42.612Z,97226.91
2022-09-30T01:33:05.508Z,97213.91
2022-09-30T01:35:13.618Z,97218.16
2022-09-30T01:37:23.351Z,97220.06
2022-09-30T01:39:32.224Z,97224.75
2022-09-30T01:41:42.377Z,97226.91
2022-09-30T01:43:48.642Z,97233.25
2022-09-30T01:45:58.370Z,97220.25
2022-09-30T01:48:04.681Z,97229.13
2022-09-30T01:50:11.154Z,97222.38
2022-09-30T01:52:16.786Z,97224.28
2022-09-30T01:54:22.799Z,97223.66
2022-09-30T01:56:30.705Z,97219.78
2022-09-30T01:58:38.706Z,97222.25
2022-09-30T02:00:44.308Z,97227.56
2022-09-30T02:02:50.081Z,97235.47
2022-09-30T02:04:57.572Z,97240.66
2022-09-30T02:07:04.497Z,97237.44
2022-09-30T02:09:10.531Z,97245.13
2022-09-30T02:11:17.481Z,97252.22
2022-09-30T02:13:28.867Z,97246.91
2022-09-30T02:15:40.370Z,97252.81
2022-09-30T02:17:48.877Z,97250.94
2022-09-30T02:19:53.567Z,97254.72
2022-09-30T02:22:01.324Z,97258.50
2022-09-30T02:24:08.642Z,97263.91
2022-09-30T02:26:15.261Z,97266.50
2022-09-30T02:28:22.017Z,97273.13
2022-09-30T02:30:25.202Z,97271.22
2022-09-30T02:32:32.086Z,97273.59
2022-09-30T02:34:39.476Z,97270.06
2022-09-30T02:36:46.736Z,97264.66
2022-09-30T02:38:56.458Z,97266.31
2022-09-30T02:41:04.772Z,97263.50
2022-09-30T02:43:08.437Z,97268.59
2022-09-30T02:45:16.366Z,97265.75
2022-09-30T02:47:26.828Z,97266.56
2022-09-30T02:49:32.503Z,97271.78
2022-09-30T02:51:41.941Z,97274.25
2022-09-30T02:53:47.287Z,97274.03
2022-09-30T02:56:05.529Z,97267.91
2022-09-30T02:58:13.002Z,97275.34
2022-09-30T03:00:16.159Z,97271.78
2022-09-30T03:02:19.879Z,97277.84
2022-09-30T03:04:27.184Z,97283.84
2022-09-30T03:06:30.304Z,97292.38
2022-09-30T03:08:34.839Z,97289.75
2022-09-30T03:10:38.274Z,97298.41
2022-09-30T03:12:47.669Z,97298.31
2022-09-30T03:15:14.038Z,97294.03
2022-09-30T03:17:33.219Z,97303.38
2022-09-30T03:19:49.833Z,97307.50
2022-09-30T03:22:05.513Z,97311.06
2022-09-30T03:24:24.460Z,97307.50
2022-09-30T03:26:34.989Z,97311.06
2022-09-30T03:28:45.671Z,97307.03
2022-09-30T03:30:56.694Z,97308.41
2022-09-30T03:33:09.065Z,97311.59
2022-09-30T03:35:19.130Z,97313.69
2022-09-30T03:37:28.712Z,97326.00
2022-09-30T03:39:42.111Z,97320.91
2022-09-30T03:41:47.677Z,97321.94
2022-09-30T03:43:52.645Z,97321.34
2022-09-30T03:46:01.155Z,97323.94
2022-09-30T03:48:05.771Z,97333.59
2022-09-30T03:50:10.005Z,97332.19
2022-09-30T03:52:14.238Z,97332.91
2022-09-30T03:54:17.591Z,97326.88
2022-09-30T03:56:28.124Z,97333.72
2022-09-30T03:58:31.071Z,97334.69
2022-09-30T04:00:34.202Z,97331.25
2022-09-30T04:02:37.893Z,97333.59
2022-09-30T04:04:41.887Z,97334.44
2022-09-30T04:06:44.904Z,97336.09
2022-09-30T04:08:48.060Z,97337.88
2022-09-30T04:10:50.984Z,97336.19
2022-09-30T04:12:55.807Z,97341.41
2022-09-30T04:14:58.755Z,97342.59
2022-09-30T04:17:01.790Z,97346.00
2022-09-30T04:19:04.864Z,97346.00
2022-09-30T04:21:08.589Z,97348.47
2022-09-30T04:23:11.551Z,97351.09
2022-09-30T04:25:14.832Z,97352.75
2022-09-30T04:27:17.799Z,97353.91
2022-09-30T04:29:22.197Z,97347.28
2022-09-30T04:31:25.734Z,97348.22
2022-09-30T04:33:28.884Z,97344.91
2022-09-30T04:35:32.675Z,97351.03
2022-09-30T04:37:35.655Z,97353.84
2022-09-30T04:39:38.653Z,97356.66
2022-09-30T04:41:41.596Z,97364.69
2022-09-30T04:43:45.372Z,97368.31
2022-09-30T04:45:50.155Z,97367.50
2022-09-30T04:47:53.183Z,97371.75
2022-09-30T04:49:56.514Z,97371.03
2022-09-30T04:51:59.502Z,97375.50
2022-09-30T04:54:02.846Z,97372.81
2022-09-30T04:56:06.257Z,97379.78
2022-09-30T04:58:09.193Z,97381.53
2022-09-30T05:00:13.156Z,97384.97
2022-09-30T05:02:17.765Z,97391.09
2022-09-30T05:04:20.750Z,97398.06
2022-09-30T05:06:23.668Z,97397.44
2022-09-30T05:08:26.563Z,97394.13
2022-09-30T05:10:29.913Z,97397.66
2022-09-30T05:12:32.846Z,97390.81
2022-09-30T05:14:35.772Z,97396.22
2022-09-30T05:16:38.887Z,97404.53
2022-09-30T05:18:45.812Z,97406.59
2022-09-30T05:20:51.046Z,97404.44
2022-09-30T05:22:56.003Z,97412.53
2022-09-30T05:24:58.921Z,97412.00
2022-09-30T05:27:02.252Z,97413.06
2022-09-30T05:29:05.178Z,97408.91
2022-09-30T05:31:08.241Z,97414.09
2022-09-30T05:33:11.861Z,97412.41
2022-09-30T05:35:16.240Z,97405.38
2022-09-30T05:37:19.216Z,97405.16
2022-09-30T05:39:22.285Z,97408.69
2022-09-30T05:41:25.311Z,97407.03
2022-09-30T05:43:28.250Z,97418.16
2022-09-30T05:45:31.255Z,97413.69
2022-09-30T05:47:34.422Z,97413.47
2022-09-30T05:49:37.312Z,97417.63
2022-09-30T05:51:41.640Z,97422.50
2022-09-30T05:53:44.775Z,97422.28
2022-09-30T05:55:48.311Z,97427.19
2022-09-30T05:57:52.255Z,97431.31
2022-09-30T05:59:55.338Z,97435.38
2022-09-30T06:01:58.382Z,97437.78
2022-09-30T06:04:01.758Z,97445.25
2022-09-30T06:06:04.968Z,97454.34
2022-09-30T06:08:09.784Z,97454.56
2022-09-30T06:10:12.782Z,97454.25
2022-09-30T06:12:16.063Z,97453.06
2022-09-30T06:14:19.933Z,97454.53
2022-09-30T06:16:24.036Z,97464.00
2022-09-30T06:18:27.752Z,97462.81
2022-09-30T06:20:31.267Z,97455.75
2022-09-30T06:22:36.070Z,97462.59
2022-09-30T06:24:41.625Z,97471.00
2022-09-30T06:26:44.515Z,97467.16
2022-09-30T06:28:47.474Z,97475.56
2022-09-30T06:30:50.856Z,97475.25
2022-09-30T06:32:54.117Z,97477.63
2022-09-30T06:34:57.124Z,97471.72
2022-09-30T06:37:00.209Z,97486.28
2022-09-30T06:39:04.390Z,97488.75
2022-09-30T06:41:09.727Z,97488.53
2022-09-30T06:43:13.418Z,97490.81
2022-09-30T06:45:30.120Z,97502.22
2022-09-30T06:47:34.980Z,97504.03
2022-09-30T06:49:48.222Z,97509.63
2022-09-30T06:51:52.684Z,97504.09
2022-09-30T06:53:56.172Z,97508.38
2022-09-30T06:55:59.376Z,97513.13
2022-09-30T06:58:03.710Z,97504.44
2022-09-30T07:00:08.099Z,97508.00
2022-09-30T07:02:13.416Z,97507.66
2022-09-30T07:04:16.446Z,97509.69
2022-09-30T07:06:19.424Z,97518.13
2022-09-30T07:08:22.341Z,97522.41
2022-09-30T07:10:25.309Z,97530.50
2022-09-30T07:12:28.881Z,97534.16
2022-09-30T07:14:33.921Z,97530.84
2022-09-30T07:16:38.467Z,97535.31
2022-09-30T07:18:42.720Z,97547.63
2022-09-30T07:20:49.476Z,97552.84
2022-09-30T07:22:52.517Z,97545.97
2022-09-30T07:24:55.992Z,97549.53
2022-09-30T07:26:59.093Z,97550.34
2022-09-30T07:29:02.396Z,97552.84
2022-09-30T07:31:32.034Z,97559.72
2022-09-30T07:33:35.574Z,97560.09
2022-09-30T07:35:39.018Z,97564.03
2022-09-30T07:37:42.001Z,97562.19
2022-09-30T07:39:46.036Z,97561.63
2022-09-30T07:41:49.033Z,97556.47
2022-09-30T07:43:52.013Z,97552.88
2022-09-30T07:45:56.378Z,97557.75
2022-09-30T07:48:01.886Z,97557.28
2022-09-30T07:50:05.433Z,97564.63
2022-09-30T07:52:09.184Z,97567.59
2022-09-30T07:54:14.631Z,97574.47
2022-09-30T07:56:18.209Z,97590.38
2022-09-30T07:58:21.586Z,97593.09
2022-09-30T08:00:41.622Z,97595.94
2022-09-30T08:02:45.459Z,97601.59
2022-09-30T08:04:50.027Z,97594.13
2022-09-30T08:06:55.540Z,97599.13
2022-09-30T08:09:00.048Z,97600.72
2022-09-30T08:11:03.757Z,97606.94
2022-09-30T08:13:07.133Z,97605.22
2022-09-30T08:15:10.932Z,97614.56
2022-09-30T08:17:14.130Z,97616.28
2022-09-30T08:19:19.195Z,97623.00
2022-09-30T08:21:23.678Z,97617.88
2022-09-30T08:23:29.354Z,97624.31
2022-09-30T08:25:32.608Z,97626.19
2022-09-30T08:27:36.114Z,97627.72
2022-09-30T08:29:56.659Z,97627.03
2022-09-30T08:32:01.913Z,97627.16
2022-09-30T08:34:05.035Z,97627.72
2022-09-30T08:36:10.244Z,97637.97
2022-09-30T08:38:14.537Z,97641.34
2022-09-30T08:40:20.125Z,97638.72
2022-09-30T08:42:41.298Z,97631.41
2022-09-30T08:44:48.995Z,97633.88
2022-09-30T08:46:58.554Z,97636.81
2022-09-30T08:49:07.359Z,97637.34
2022-09-30T08:51:22.818Z,97639.28
2022-09-30T08:53:31.273Z,97636.25
2022-09-30T08:55:39.860Z,97633.09
2022-09-30T08:57:47.343Z,97637.22
2022-09-30T08:59:55.236Z,97628.25
2022-09-30T09:02:03.153Z,97626.59
2022-09-30T09:04:07.984Z,97628.53
2022-09-30T09:06:21.664Z,97632.50
2022-09-30T09:08:33.747Z,97634.94
2022-09-30T09:10:42.978Z,97639.09
2022-09-30T09:12:51.420Z,97639.13
2022-09-30T09:15:04.672Z,97630.91
2022-09-30T09:17:18.869Z,97641.00
2022-09-30T09:19:26.435Z,97638.97
2022-09-30T09:21:37.281Z,97638.31
2022-09-30T09:23:42.259Z,97640.69
2022-09-30T09:25:49.412Z,97634.44
2022-09-30T09:27:55.008Z,97637.34
2022-09-30T09:30:06.399Z,97627.22
2022-09-30T09:32:14.927Z,97635.75
2022-09-30T09:34:18.078Z,97645.38
2022-09-30T09:36:34.533Z,97633.56
2022-09-30T09:38:45.603Z,97639.72
2022-09-30T09:40:58.298Z,97640.22
2022-09-30T09:43:12.191Z,97635.13
2022-09-30T09:45:23.434Z,97638.84
2022-09-30T09:47:26.403Z,97641.81
2022-09-30T09:49:32.159Z,97648.19
2022-09-30T09:51:37.524Z,97641.53
2022-09-30T09:53:48.910Z,97637.06
2022-09-30T09:55:59.296Z,97639.09
2022-09-30T09:58:13.882Z,97639.91
2022-09-30T10:00:43.394Z,97644.25
2022-09-30T10:02:46.569Z,97644.78
2022-09-30T10:04:59.795Z,97648.38
2022-09-30T10:07:13.806Z,97641.84
2022-09-30T10:09:30.344Z,97636.44
2022-09-30T10:11:33.333Z,97645.00
2022-09-30T10:13:43.189Z,97643.94
2022-09-30T10:15:46.608Z,97645.59
2022-09-30T10:17:54.763Z,97650.41
2022-09-30T10:20:02.277Z,97652.63
2022-09-30T10:22:20.299Z,97654.19
2022-09-30T10:24:31.637Z,97651.16
2022-09-30T10:26:47.832Z,97648.94
2022-09-30T10:28:53.967Z,97653.81
2022-09-30T10:30:59.371Z,97658.66
2022-09-30T10:33:04.276Z,97657.06
2022-09-30T10:35:17.110Z,97650.91
2022-09-30T10:37:22.652Z,97652.22
2022-09-30T10:39:27.320Z,97648.44
2022-09-30T10:41:33.338Z,97652.56
2022-09-30T10:43:44.385Z,97665.28
2022-09-30T10:46:06.961Z,97663.84
2022-09-30T10:48:18.583Z,97659.53
2022-09-30T10:50:23.100Z,97659.38
2022-09-30T10:52:28.067Z,97657.72
2022-09-30T10:54:46.286Z,97655.78
2022-09-30T10:56:53.543Z,97656.09
2022-09-30T10:58:57.627Z,97659.22
2022-09-30T11:01:05.840Z,97653.22
2022-09-30T11:03:12.843Z,97655.00
2022-09-30T11:05:19.349Z,97650.91
2022-09-30T11:07:27.784Z,97645.22
2022-09-30T11:09:36.391Z,97650.34
2022-09-30T11:11:41.251Z,97648.28
2022-09-30T11:13:50.120Z,97647.72
2022-09-30T11:15:58.912Z,97653.19
2022-09-30T11:18:05.972Z,97655.22
2022-09-30T11:20:18.784Z,97654.78
2022-09-30T11:22:35.184Z,97648.44
2022-09-30T11:24:41.868Z,97643.41
2022-09-30T11:26:51.269Z,97642.31
2022-09-30T11:29:06.861Z,97641.91
2022-09-30T11:31:19.483Z,97637.38
2022-09-30T11:33:45.198Z,97644.16
2022-09-30T11:35:54.838Z,97642.22
2022-09-30T11:38:09.717Z,97646.03
2022-09-30T11:40:33.161Z,97648.03
2022-09-30T11:42:43.514Z,97646.88
2022-09-30T11:44:47.995Z,97646.25
2022-09-30T11:47:05.017Z,97654.69
2022-09-30T11:49:29.341Z,97652.25
2022-09-30T11:51:40.144Z,97654.25
2022-09-30T11:53:50.400Z,97651.13
2022-09-30T11:56:04.331Z,97656.09
2022-09-30T11:58:36.167Z,97653.28
2022-09-30T12:00:35.718Z,97655.75
2022-09-30T12:02:42.537Z,97649.00
2022-09-30T12:04:46.455Z,97643.41
2022-09-30T12:06:53.596Z,97643.56
2022-09-30T12:08:59.980Z,97648.34
2022-09-30T12:11:06.155Z,97645.22
2022-09-30T12:13:12.269Z,97654.59
2022-09-30T12:15:17.956Z,97654.75
2022-09-30T12:17:29.777Z,97653.94
2022-09-30T12:19:37.316Z,97651.59
2022-09-30T12:21:45.473Z,97643.81
2022-09-30T12:23:51.153Z,97643.13
2022-09-30T12:25:57.415Z,97646.06
2022-09-30T12:28:25.106Z,97645.91
2022-09-30T12:30:29.763Z,97639.78
2022-09-30T12:33:10.836Z,97645.84
2022-09-30T12:35:43.778Z,97641.22
2022-09-30T12:37:59.569Z,97640.19
2022-09-30T12:40:34.092Z,97637.94
2022-09-30T12:42:52.808Z,97636.00
2022-09-30T12:45:17.978Z,97633.19
2022-09-30T12:47:34.083Z,97635.19
2022-09-30T12:49:40.438Z,97628.25
2022-09-30T12:51:44.324Z,97634.19
2022-09-30T12:53:51.708Z,97633.53
2022-09-30T12:55:55.579Z,97627.09
2022-09-30T12:58:01.352Z,97626.59
2022-09-30T13:00:08.903Z,97633.69
2022-09-30T13:02:30.261Z,97643.13
2022-09-30T13:04:35.703Z,97642.88
2022-09-30T13:07:08.464Z,97652.78
2022-09-30T13:09:22.537Z,97645.53
2022-09-30T13:11:42.971Z,97647.38
2022-09-30T13:14:01.933Z,97648.34
2022-09-30T13:16:06.689Z,97646.09
2022-09-30T13:18:46.813Z,97651.19
2022-09-30T13:20:55.085Z,97644.75
2022-09-30T13:22:59.829Z,97652.00
2022-09-30T13:25:12.689Z,97649.69
2022-09-30T13:27:16.274Z,97650.88
2022-09-30T13:29:48.358Z,97655.16
2022-09-30T13:32:04.479Z,97649.88
2022-09-30T13:34:11.653Z,97649.75
2022-09-30T13:36:28.589Z,97639.19
2022-09-30T13:38:37.843Z,97650.59
2022-09-30T13:41:00.795Z,97653.00
2022-09-30T13:43:05.358Z,97658.41
2022-09-30T13:45:16.343Z,97652.16
2022-09-30T13:47:23.343Z,97650.31
2022-09-30T13:49:34.921Z,97657.84
2022-09-30T13:51:40.205Z,97649.44
2022-09-30T13:53:47.029Z,97649.59
2022-09-30T13:55:53.701Z,97654.06
2022-09-30T13:58:07.102Z,97658.00
2022-09-30T14:00:13.779Z,97650.78
2022-09-30T14:02:44.689Z,97650.72
2022-09-30T14:04:56.814Z,97649.41
2022-09-30T14:07:07.115Z,97651.69
2022-09-30T14:09:24.723Z,97649.34
2022-09-30T14:11:41.304Z,97644.84
2022-09-30T14:13:51.155Z,97650.28
2022-09-30T14:16:12.146Z,97648.84
2022-09-30T14:18:41.377Z,97648.03
2022-09-30T14:21:01.374Z,97649.16
2022-09-30T14:23:05.204Z,97650.59
2022-09-30T14:25:15.614Z,97655.72
2022-09-30T14:27:32.035Z,97658.03
2022-09-30T14:29:40.826Z,97653.59
2022-09-30T14:31:45.515Z,97652.44
2022-09-30T14:33:50.209Z,97648.34
2022-09-30T14:35:54.082Z,97655.56
2022-09-30T14:38:00.173Z,97649.13
2022-09-30T14:40:03.861Z,97641.72
2022-09-30T14:42:15.186Z,97644.03
2022-09-30T14:44:19.973Z,97645.16
2022-09-30T14:46:30.259Z,97654.72
2022-09-30T14:48:35.759Z,97650.44
2022-09-30T14:50:44.512Z,97658.88
2022-09-30T14:52:49.405Z,97644.06
2022-09-30T14:54:52.417Z,97651.97
2022-09-30T14:56:55.564Z,97651.16
2022-09-30T14:59:00.986Z,97647.19
2022-09-30T15:01:07.160Z,97652.38
2022-09-30T15:03:12.481Z,97645.13
2022-09-30T15:05:16.514Z,97647.09
2022-09-30T15:07:20.067Z,97648.56
2022-09-30T15:09:29.611Z,97646.63
2022-09-30T15:11:37.301Z,97638.38
2022-09-30T15:13:43.454Z,97639.03
2022-09-30T15:15:47.958Z,97642.50
2022-09-30T15:17:51.863Z,97640.19
2022-09-30T15:19:55.838Z,97642.31
2022-09-30T15:22:02.089Z,97639.38
2022-09-30T15:24:06.606Z,97633.44
2022-09-30T15:26:12.492Z,97641.69
2022-09-30T15:28:15.880Z,97643.69
2022-09-30T15:30:29.046Z,97645.22
2022-09-30T15:32:35.582Z,97645.22
2022-09-30T15:34:38.737Z,97658.25
2022-09-30T15:36:41.852Z,97654.09
2022-09-30T15:38:49.052Z,97655.94
2022-09-30T15:40:59.034Z,97658.56
2022-09-30T15:43:04.238Z,97654.25
2022-09-30T15:45:34.215Z,97658.88
2022-09-30T15:47:54.532Z,97660.00
2022-09-30T15:49:58.039Z,97651.28
2022-09-30T15:52:36.236Z,97649.63
2022-09-30T15:54:39.202Z,97658.00
2022-09-30T15:56:43.170Z,97654.06
2022-09-30T15:58:56.270Z,97659.44
2022-09-30T16:01:14.882Z,97655.47
2022-09-30T16:03:29.881Z,97660.97
2022-09-30T16:05:33.000Z,97655.69
2022-09-30T16:07:36.088Z,97654.78
2022-09-30T16:09:40.625Z,97655.19
2022-09-30T16:11:45.203Z,97648.22
2022-09-30T16:13:48.817Z,97650.78
2022-09-30T16:15:53.528Z,97648.63
2022-09-30T16:17:57.129Z,97652.84
2022-09-30T16:20:04.270Z,97660.38
2022-09-30T16:22:51.639Z,97661.16
2022-09-30T16:25:01.154Z,97652.72
2022-09-30T16:27:22.367Z,97662.75
2022-09-30T16:29:26.800Z,97657.78
2022-09-30T16:31:30.989Z,97656.59
2022-09-30T16:33:36.936Z,97657.84
2022-09-30T16:35:42.683Z,97652.22
2022-09-30T16:37:45.739Z,97653.50
2022-09-30T16:39:49.545Z,97655.59
2022-09-30T16:41:54.234Z,97659.53
2022-09-30T16:43:57.297Z,97656.38
2022-09-30T16:46:01.566Z,97658.47
2022-09-30T16:48:12.035Z,97666.16
2022-09-30T16:50:25.426Z,97666.00
2022-09-30T16:52:29.967Z,97664.13
2022-09-30T16:54:33.033Z,97668.19
2022-09-30T16:56:36.261Z,97670.47
2022-09-30T16:58:39.218Z,97668.41
2022-09-30T17:00:43.123Z,97651.41
2022-09-30T17:02:47.524Z,97658.91
2022-09-30T17:04:50.479Z,97667.25
2022-09-30T17:06:53.675Z,97660.75
2022-09-30T17:08:58.224Z,97666.47
2022-09-30T17:11:01.227Z,97657.34
2022-09-30T17:13:04.231Z,97672.72
2022-09-30T17:15:07.910Z,97667.91
2022-09-30T17:17:13.644Z,97672.13
2022-09-30T17:19:17.115Z,97677.09
2022-09-30T17:21:20.663Z,97682.91
2022-09-30T17:23:25.851Z,97682.69
2022-09-30T17:25:30.220Z,97684.25
2022-09-30T17:27:33.223Z,97678.53
2022-09-30T17:29:41.751Z,97681.59
2022-09-30T17:31:45.258Z,97678.56
2022-09-30T17:33:48.279Z,97685.06
2022-09-30T17:36:00.236Z,97682.19
2022-09-30T17:38:07.207Z,97687.31
2022-09-30T17:40:25.077Z,97688.00
2022-09-30T17:42:47.137Z,97689.25
2022-09-30T17:44:50.162Z,97691.47
2022-09-30T17:47:00.298Z,97698.09
2022-09-30T17:49:03.319Z,97696.03
2022-09-30T17:51:07.811Z,97703.63
2022-09-30T17:53:13.064Z,97699.91
2022-09-30T17:55:16.184Z,97708.22
2022-09-30T17:57:19.435Z,97699.09
2022-09-30T17:59:25.979Z,97703.91
2022-09-30T18:01:29.463Z,97699.22
2022-09-30T18:03:32.575Z,97694.78
2022-09-30T18:05:35.589Z,97696.56
2022-09-30T18:07:38.689Z,97698.19
2022-09-30T18:09:41.633Z,97696.22
2022-09-30T18:11:45.021Z,97694.81
2022-09-30T18:13:52.857Z,97693.81
2022-09-30T18:15:59.622Z,97704.28
2022-09-30T18:18:02.730Z,97697.22
2022-09-30T18:20:07.087Z,97696.13
2022-09-30T18:22:10.207Z,97703.53
2022-09-30T18:24:13.190Z,97699.53
2022-09-30T18:26:16.966Z,97701.25
2022-09-30T18:28:19.987Z,97704.28
2022-09-30T18:30:23.564Z,97706.34
2022-09-30T18:32:28.591Z,97710.28
2022-09-30T18:34:31.742Z,97714.53
2022-09-30T18:36:35.354Z,97725.66
2022-09-30T18:38:38.404Z,97732.78
2022-09-30T18:40:42.946Z,97735.78
2022-09-30T18:42:46.347Z,97729.16
2022-09-30T18:44:51.038Z,97740.00
2022-09-30T18:46:55.427Z,97735.97
2022-09-30T18:48:59.943Z,97745.84
2022-09-30T18:51:03.535Z,97751.59
2022-09-30T18:53:10.010Z,97757.88
2022-09-30T18:55:13.238Z,97764.22
2022-09-30T18:57:17.194Z,97765.28
2022-09-30T18:59:23.369Z,97763.06
2022-09-30T19:01:27.985Z,97771.16
2022-09-30T19:03:31.281Z,97768.09
2022-09-30T19:05:36.494Z,97766.78
2022-09-30T19:07:39.711Z,97770.63
2022-09-30T19:09:42.748Z,97769.06
2022-09-30T19:11:47.225Z,97762.41
2022-09-30T19:13:53.384Z,97760.91
2022-09-30T19:15:56.402Z,97752.44
2022-09-30T19:17:59.943Z,97754.75
2022-09-30T19:20:03.474Z,97754.66
2022-09-30T19:22:07.906Z,97758.94
2022-09-30T19:24:11.211Z,97769.06
2022-09-30T19:26:15.389Z,97763.25
2022-09-30T19:28:19.338Z,97764.09
2022-09-30T19:30:24.034Z,97762.28
2022-09-30T19:32:29.425Z,97755.19
2022-09-30T19:34:32.670Z,97762.28
2022-09-30T19:36:48.275Z,97763.25
2022-09-30T19:39:09.953Z,97766.94
2022-09-30T19:41:16.190Z,97761.81
2022-09-30T19:43:19.676Z,97760.63
2022-09-30T19:45:25.769Z,97767.78
2022-09-30T19:47:33.622Z,97759.59
2022-09-30T19:49:37.395Z,97761.72
2022-09-30T19:51:40.344Z,97759.97
2022-09-30T19:53:57.579Z,97760.06
2022-09-30T19:56:10.333Z,97758.75
2022-09-30T19:58:14.551Z,97758.88
2022-09-30T20:00:18.138Z,97755.56
2022-09-30T20:02:22.170Z,97750.47
2022-09-30T20:04:25.750Z,97754.25
2022-09-30T20:06:28.919Z,97748.09
2022-09-30T20:08:32.902Z,97751.03
2022-09-30T20:10:39.242Z,97749.81
2022-09-30T20:12:43.955Z,97745.06
2022-09-30T20:15:05.639Z,97740.09
2022-09-30T20:17:08.648Z,97751.13
2022-09-30T20:19:12.106Z,97750.41
2022-09-30T20:21:18.831Z,97754.09
2022-09-30T20:23:22.202Z,97751.63
2022-09-30T20:25:25.467Z,97753.72
2022-09-30T20:27:28.984Z,97754.06
2022-09-30T20:29:33.603Z,97753.59
2022-09-30T20:31:37.218Z,97750.41
2022-09-30T20:33:40.788Z,97753.00
2022-09-30T20:35:43.809Z,97741.94
2022-09-30T20:37:46.922Z,97737.81
2022-09-30T20:39:49.901Z,97736.25
2022-09-30T20:41:55.054Z,97734.81
2022-09-30T20:43:58.777Z,97738.50
2022-09-30T20:46:05.560Z,97746.09
2022-09-30T20:48:11.768Z,97752.50
2022-09-30T20:50:35.010Z,97748.34
2022-09-30T20:52:38.172Z,97757.94
2022-09-30T20:54:41.175Z,97745.22
2022-09-30T20:57:06.422Z,97741.09
2022-09-30T20:59:08.464Z,97749.28
2022-09-30T21:01:14.724Z,97747.81
2022-09-30T21:03:17.800Z,97754.19
2022-09-30T21:05:21.323Z,97759.75
2022-09-30T21:07:25.266Z,97760.94
2022-09-30T21:09:28.256Z,97763.78
2022-09-30T21:11:31.469Z,97765.66
2022-09-30T21:13:35.247Z,97773.81
2022-09-30T21:15:38.211Z,97777.47
2022-09-30T21:17:45.408Z,97783.63
2022-09-30T21:19:48.331Z,97784.72
2022-09-30T21:21:51.290Z,97786.69
2022-09-30T21:23:57.445Z,97791.41
2022-09-30T21:26:01.155Z,97793.09
2022-09-30T21:28:04.552Z,97805.38
2022-09-30T21:30:08.704Z,97791.84
2022-09-30T21:32:11.712Z,97795.59
2022-09-30T21:34:16.104Z,97806.13
2022-09-30T21:36:21.009Z,97802.09
2022-09-30T21:38:25.125Z,97800.44
2022-09-30T21:40:28.870Z,97806.56
2022-09-30T21:42:31.868Z,97802.44
2022-09-30T21:44:34.871Z,97812.97
2022-09-30T21:46:37.895Z,97807.16
2022-09-30T21:48:41.071Z,97806.72
2022-09-30T21:50:45.336Z,97801.53
2022-09-30T21:52:49.157Z,97801.84
2022-09-30T21:54:56.972Z,97809.66
2022-09-30T21:56:59.913Z,97817.47
2022-09-30T21:59:02.873Z,97820.94
2022-09-30T22:01:06.950Z,97820.09
2022-09-30T22:03:10.402Z,97819.16
2022-09-30T22:05:13.498Z,97825.28
2022-09-30T22:07:17.823Z,97829.91
2022-09-30T22:09:20.780Z,97830.94
2022-09-30T22:11:24.894Z,97819.78
2022-09-30T22:13:27.954Z,97819.97
2022-09-30T22:15:31.598Z,97817.81
2022-09-30T22:17:34.608Z,97824.16
2022-09-30T22:19:38.947Z,97824.47
2022-09-30T22:21:42.107Z,97818.66
2022-09-30T22:23:47.508Z,97810.94
2022-09-30T22:25:50.465Z,97794.50
2022-09-30T22:27:53.487Z,97785.13
2022-09-30T22:29:56.459Z,97794.81
2022-09-30T22:32:01.808Z,97796.59
2022-09-30T22:34:24.192Z,97803.44
2022-09-30T22:36:44.475Z,97798.47
2022-09-30T22:38:49.537Z,97800.25
2022-09-30T22:40:54.780Z,97800.34
2022-09-30T22:42:57.860Z,97807.44
2022-09-30T22:45:01.154Z,97807.66
2022-09-30T22:47:05.142Z,97812.00
2022-09-30T22:49:08.372Z,97812.00
2022-09-30T22:51:16.110Z,97813.78
2022-09-30T22:53:19.122Z,97818.16
2022-09-30T22:55:23.411Z,97815.03
2022-09-30T22:57:26.363Z,97817.00
2022-09-30T22:59:30.193Z,97809.31
2022-09-30T23:01:33.493Z,97810.34
2022-09-30T23:03:36.824Z,97804.41
2022-09-30T23:05:39.766Z,97807.03
2022-09-30T23:07:42.730Z,97801.81
2022-09-30T23:09:46.045Z,97801.00
2022-09-30T23:11:54.090Z,97800.13
2022-09-30T23:13:59.303Z,97798.69
2022-09-30T23:16:02.852Z,97796.31
2022-09-30T23:18:05.782Z,97796.41
2022-09-30T23:20:09.459Z,97807.03
2022-09-30T23:22:12.554Z,97802.44
2022-09-30T23:24:15.832Z,97807.63
2022-09-30T23:26:20.606Z,97810.13
2022-09-30T23:28:24.971Z,97805.78
2022-09-30T23:30:27.954Z,97810.25
2022-09-30T23:32:30.892Z,97810.44
2022-09-30T23:34:33.859Z,97812.22
2022-09-30T23:36:38.029Z,97804.53
2022-09-30T23:38:41.009Z,97803.28
2022-09-30T23:40:44.711Z,97805.16
2022-09-30T23:42:50.403Z,97809.72
2022-09-30T23:44:54.700Z,97812.34
2022-09-30T23:47:15.451Z,97807.25
2022-09-30T23:49:19.650Z,97804.53
2022-09-30T23:51:22.569Z,97811.78
2022-09-30T23:53:25.660Z,97812.84
2022-09-30T23:55:30.569Z,97812.19
2022-09-30T23:57:33.626Z,97816.56
2022-09-30T23:59:36.489Z,97811.38
